sensor_id;sensor_type;location;lat;lon;timestamp;temperature;humidity
17726;DHT22;8983;53.156;17.960;2022-12-18T00:02:03;-3.50;99.90
17726;DHT22;8983;53.156;17.960;2022-12-18T00:04:31;-3.50;99.90
17726;DHT22;8983;53.156;17.960;2022-12-18T00:06:59;-3.40;99.90
17726;DHT22;8983;53.156;17.960;2022-12-18T00:09:28;-3.40;99.90
17726;DHT22;8983;53.156;17.960;2022-12-18T00:12:06;-3.40;99.90
17726;DHT22;8983;53.156;17.960;2022-12-18T00:14:41;-3.40;99.90
17726;DHT22;8983;53.156;17.960;2022-12-18T00:17:09;-3.40;99.90
17726;DHT22;8983;53.156;17.960;2022-12-18T00:19:37;-3.40;99.90
17726;DHT22;8983;53.156;17.960;2022-12-18T00:22:05;-3.40;99.90
17726;DHT22;8983;53.156;17.960;2022-12-18T00:24:35;-3.40;99.90
17726;DHT22;8983;53.156;17.960;2022-12-18T00:27:03;-3.40;99.90
17726;DHT22;8983;53.156;17.960;2022-12-18T00:29:31;-3.40;99.90
17726;DHT22;8983;53.156;17.960;2022-12-18T00:31:59;-3.40;99.90
17726;DHT22;8983;53.156;17.960;2022-12-18T00:34:27;-3.40;99.90
17726;DHT22;8983;53.156;17.960;2022-12-18T00:36:55;-3.40;99.90
17726;DHT22;8983;53.156;17.960;2022-12-18T00:39:23;-3.40;99.90
17726;DHT22;8983;53.156;17.960;2022-12-18T00:41:52;-3.40;99.90
17726;DHT22;8983;53.156;17.960;2022-12-18T00:44:38;-3.30;99.90
17726;DHT22;8983;53.156;17.960;2022-12-18T00:47:06;-3.30;99.90
17726;DHT22;8983;53.156;17.960;2022-12-18T00:49:35;-3.20;99.90
17726;DHT22;8983;53.156;17.960;2022-12-18T00:52:02;-3.30;99.90
17726;DHT22;8983;53.156;17.960;2022-12-18T00:54:31;-3.30;99.90
17726;DHT22;8983;53.156;17.960;2022-12-18T00:57:00;-3.20;99.90
17726;DHT22;8983;53.156;17.960;2022-12-18T00:59:29;-3.30;99.90
17726;DHT22;8983;53.156;17.960;2022-12-18T01:01:57;-3.30;99.90
17726;DHT22;8983;53.156;17.960;2022-12-18T01:04:25;-3.30;99.90
17726;DHT22;8983;53.156;17.960;2022-12-18T01:06:53;-3.30;99.90
17726;DHT22;8983;53.156;17.960;2022-12-18T01:09:22;-3.30;99.90
17726;DHT22;8983;53.156;17.960;2022-12-18T01:11:50;-3.30;99.90
17726;DHT22;8983;53.156;17.960;2022-12-18T01:14:19;-3.20;99.90
17726;DHT22;8983;53.156;17.960;2022-12-18T01:16:47;-3.20;99.90
17726;DHT22;8983;53.156;17.960;2022-12-18T01:19:15;-3.30;99.90
17726;DHT22;8983;53.156;17.960;2022-12-18T01:21:43;-3.30;99.90
17726;DHT22;8983;53.156;17.960;2022-12-18T01:24:11;-3.40;99.90
17726;DHT22;8983;53.156;17.960;2022-12-18T01:26:40;-3.30;99.90
17726;DHT22;8983;53.156;17.960;2022-12-18T01:29:08;-3.30;99.90
17726;DHT22;8983;53.156;17.960;2022-12-18T01:31:37;-3.30;99.90
17726;DHT22;8983;53.156;17.960;2022-12-18T01:34:05;-3.30;99.90
17726;DHT22;8983;53.156;17.960;2022-12-18T01:36:36;-3.20;99.90
17726;DHT22;8983;53.156;17.960;2022-12-18T01:39:08;-3.20;99.90
17726;DHT22;8983;53.156;17.960;2022-12-18T01:41:38;-3.10;99.90
17726;DHT22;8983;53.156;17.960;2022-12-18T01:44:59;-3.10;99.90
17726;DHT22;8983;53.156;17.960;2022-12-18T01:47:32;-3.10;99.90
17726;DHT22;8983;53.156;17.960;2022-12-18T01:50:03;-3.10;99.90
17726;DHT22;8983;53.156;17.960;2022-12-18T01:52:33;-3.10;99.90
17726;DHT22;8983;53.156;17.960;2022-12-18T01:55:03;-3.10;99.90
17726;DHT22;8983;53.156;17.960;2022-12-18T01:57:32;-3.20;99.90
17726;DHT22;8983;53.156;17.960;2022-12-18T02:00:04;-3.20;99.90
17726;DHT22;8983;53.156;17.960;2022-12-18T02:02:34;-3.20;99.90
17726;DHT22;8983;53.156;17.960;2022-12-18T02:05:03;-3.20;99.90
17726;DHT22;8983;53.156;17.960;2022-12-18T02:07:38;-3.20;99.90
17726;DHT22;8983;53.156;17.960;2022-12-18T02:10:13;-3.20;99.90
17726;DHT22;8983;53.156;17.960;2022-12-18T02:12:47;-3.20;99.90
17726;DHT22;8983;53.156;17.960;2022-12-18T02:15:21;-3.30;99.90
17726;DHT22;8983;53.156;17.960;2022-12-18T02:17:56;-3.30;99.90
17726;DHT22;8983;53.156;17.960;2022-12-18T02:20:29;-3.30;99.90
17726;DHT22;8983;53.156;17.960;2022-12-18T02:23:08;-3.30;99.90
17726;DHT22;8983;53.156;17.960;2022-12-18T02:26:04;-3.30;99.90
17726;DHT22;8983;53.156;17.960;2022-12-18T02:28:36;-3.30;99.90
17726;DHT22;8983;53.156;17.960;2022-12-18T02:31:10;-3.30;99.90
17726;DHT22;8983;53.156;17.960;2022-12-18T02:33:40;-3.20;99.90
17726;DHT22;8983;53.156;17.960;2022-12-18T02:36:10;-3.30;99.90
17726;DHT22;8983;53.156;17.960;2022-12-18T02:38:42;-3.30;99.90
17726;DHT22;8983;53.156;17.960;2022-12-18T02:41:13;-3.30;99.90
17726;DHT22;8983;53.156;17.960;2022-12-18T02:43:46;-3.30;99.90
17726;DHT22;8983;53.156;17.960;2022-12-18T02:46:26;-3.30;99.90
17726;DHT22;8983;53.156;17.960;2022-12-18T02:49:01;-3.30;99.90
17726;DHT22;8983;53.156;17.960;2022-12-18T02:51:32;-3.30;99.90
17726;DHT22;8983;53.156;17.960;2022-12-18T02:54:10;-3.30;99.90
17726;DHT22;8983;53.156;17.960;2022-12-18T02:56:48;-3.20;99.90
17726;DHT22;8983;53.156;17.960;2022-12-18T02:59:19;-3.20;99.90
17726;DHT22;8983;53.156;17.960;2022-12-18T03:01:51;-3.20;99.90
17726;DHT22;8983;53.156;17.960;2022-12-18T03:04:26;-3.20;99.90
17726;DHT22;8983;53.156;17.960;2022-12-18T03:06:57;-3.30;99.90
17726;DHT22;8983;53.156;17.960;2022-12-18T03:09:31;-3.30;99.90
17726;DHT22;8983;53.156;17.960;2022-12-18T03:12:04;-3.30;99.90
17726;DHT22;8983;53.156;17.960;2022-12-18T03:14:55;-3.30;99.90
17726;DHT22;8983;53.156;17.960;2022-12-18T03:17:26;-3.30;99.90
17726;DHT22;8983;53.156;17.960;2022-12-18T03:19:58;-3.40;99.90
17726;DHT22;8983;53.156;17.960;2022-12-18T03:22:30;-3.40;99.90
17726;DHT22;8983;53.156;17.960;2022-12-18T03:25:01;-3.40;99.90
17726;DHT22;8983;53.156;17.960;2022-12-18T03:27:33;-3.30;99.90
17726;DHT22;8983;53.156;17.960;2022-12-18T03:30:04;-3.30;99.90
17726;DHT22;8983;53.156;17.960;2022-12-18T03:32:39;-3.40;99.90
17726;DHT22;8983;53.156;17.960;2022-12-18T03:35:11;-3.30;99.90
17726;DHT22;8983;53.156;17.960;2022-12-18T03:37:40;-3.40;99.90
17726;DHT22;8983;53.156;17.960;2022-12-18T03:40:09;-3.40;99.90
17726;DHT22;8983;53.156;17.960;2022-12-18T03:42:44;-3.40;99.90
17726;DHT22;8983;53.156;17.960;2022-12-18T03:45:20;-3.40;99.90
17726;DHT22;8983;53.156;17.960;2022-12-18T03:47:58;-3.40;99.90
17726;DHT22;8983;53.156;17.960;2022-12-18T03:50:35;-3.40;99.90
17726;DHT22;8983;53.156;17.960;2022-12-18T03:53:13;-3.40;99.90
17726;DHT22;8983;53.156;17.960;2022-12-18T03:55:43;-3.30;99.90
17726;DHT22;8983;53.156;17.960;2022-12-18T03:58:17;-3.40;99.90
17726;DHT22;8983;53.156;17.960;2022-12-18T04:00:48;-3.40;99.90
17726;DHT22;8983;53.156;17.960;2022-12-18T04:03:18;-3.50;99.90
17726;DHT22;8983;53.156;17.960;2022-12-18T04:05:54;-3.60;99.90
17726;DHT22;8983;53.156;17.960;2022-12-18T04:08:24;-3.50;99.90
17726;DHT22;8983;53.156;17.960;2022-12-18T04:10:52;-3.50;99.90
17726;DHT22;8983;53.156;17.960;2022-12-18T04:13:28;-3.60;99.90
17726;DHT22;8983;53.156;17.960;2022-12-18T04:15:56;-3.50;99.90
17726;DHT22;8983;53.156;17.960;2022-12-18T04:18:24;-3.50;99.90
17726;DHT22;8983;53.156;17.960;2022-12-18T04:20:53;-3.40;99.90
17726;DHT22;8983;53.156;17.960;2022-12-18T04:23:21;-3.50;99.90
17726;DHT22;8983;53.156;17.960;2022-12-18T04:25:49;-3.50;99.90
17726;DHT22;8983;53.156;17.960;2022-12-18T04:28:17;-3.60;99.90
17726;DHT22;8983;53.156;17.960;2022-12-18T04:30:47;-3.60;99.90
17726;DHT22;8983;53.156;17.960;2022-12-18T04:33:16;-3.50;99.90
17726;DHT22;8983;53.156;17.960;2022-12-18T04:35:44;-3.50;99.90
17726;DHT22;8983;53.156;17.960;2022-12-18T04:38:12;-3.40;99.90
17726;DHT22;8983;53.156;17.960;2022-12-18T04:40:41;-3.40;99.90
17726;DHT22;8983;53.156;17.960;2022-12-18T04:43:09;-3.40;99.90
17726;DHT22;8983;53.156;17.960;2022-12-18T04:45:37;-3.40;99.90
17726;DHT22;8983;53.156;17.960;2022-12-18T04:48:07;-3.50;99.90
17726;DHT22;8983;53.156;17.960;2022-12-18T04:50:36;-3.60;99.90
17726;DHT22;8983;53.156;17.960;2022-12-18T04:53:04;-3.70;99.90
17726;DHT22;8983;53.156;17.960;2022-12-18T04:55:32;-3.60;99.90
17726;DHT22;8983;53.156;17.960;2022-12-18T04:58:00;-3.60;99.90
17726;DHT22;8983;53.156;17.960;2022-12-18T05:00:28;-3.60;99.90
17726;DHT22;8983;53.156;17.960;2022-12-18T05:02:56;-3.60;99.90
17726;DHT22;8983;53.156;17.960;2022-12-18T05:05:25;-3.60;99.90
17726;DHT22;8983;53.156;17.960;2022-12-18T05:07:53;-3.50;99.90
17726;DHT22;8983;53.156;17.960;2022-12-18T05:10:21;-3.40;99.90
17726;DHT22;8983;53.156;17.960;2022-12-18T05:12:49;-3.60;99.90
17726;DHT22;8983;53.156;17.960;2022-12-18T05:15:28;-3.60;99.90
17726;DHT22;8983;53.156;17.960;2022-12-18T05:17:56;-3.60;99.90
17726;DHT22;8983;53.156;17.960;2022-12-18T05:20:26;-3.70;99.90
17726;DHT22;8983;53.156;17.960;2022-12-18T05:22:55;-3.60;99.90
17726;DHT22;8983;53.156;17.960;2022-12-18T05:25:23;-3.70;99.90
17726;DHT22;8983;53.156;17.960;2022-12-18T05:27:51;-3.70;99.90
17726;DHT22;8983;53.156;17.960;2022-12-18T05:30:19;-3.70;99.90
17726;DHT22;8983;53.156;17.960;2022-12-18T05:32:47;-3.70;99.90
17726;DHT22;8983;53.156;17.960;2022-12-18T05:35:15;-3.80;99.90
17726;DHT22;8983;53.156;17.960;2022-12-18T05:37:45;-3.80;99.90
17726;DHT22;8983;53.156;17.960;2022-12-18T05:40:13;-3.80;99.90
17726;DHT22;8983;53.156;17.960;2022-12-18T05:42:41;-3.80;99.90
17726;DHT22;8983;53.156;17.960;2022-12-18T05:45:09;-3.80;99.90
17726;DHT22;8983;53.156;17.960;2022-12-18T05:47:37;-3.90;99.90
17726;DHT22;8983;53.156;17.960;2022-12-18T05:50:06;-3.90;99.90
17726;DHT22;8983;53.156;17.960;2022-12-18T05:52:34;-4.00;99.90
17726;DHT22;8983;53.156;17.960;2022-12-18T05:55:04;-4.00;99.90
17726;DHT22;8983;53.156;17.960;2022-12-18T05:57:32;-4.00;99.90
17726;DHT22;8983;53.156;17.960;2022-12-18T06:00:00;-4.00;99.90
17726;DHT22;8983;53.156;17.960;2022-12-18T06:02:28;-4.00;99.90
17726;DHT22;8983;53.156;17.960;2022-12-18T06:04:56;-4.00;99.90
17726;DHT22;8983;53.156;17.960;2022-12-18T06:07:24;-3.90;99.90
17726;DHT22;8983;53.156;17.960;2022-12-18T06:09:52;-4.00;99.90
17726;DHT22;8983;53.156;17.960;2022-12-18T06:12:21;-3.90;99.90
17726;DHT22;8983;53.156;17.960;2022-12-18T06:14:49;-4.00;99.90
17726;DHT22;8983;53.156;17.960;2022-12-18T06:17:17;-4.00;99.90
17726;DHT22;8983;53.156;17.960;2022-12-18T06:19:45;-4.00;99.90
17726;DHT22;8983;53.156;17.960;2022-12-18T06:22:13;-4.00;99.90
17726;DHT22;8983;53.156;17.960;2022-12-18T06:24:41;-4.00;99.90
17726;DHT22;8983;53.156;17.960;2022-12-18T06:27:09;-4.10;99.90
17726;DHT22;8983;53.156;17.960;2022-12-18T06:29:39;-4.10;99.90
17726;DHT22;8983;53.156;17.960;2022-12-18T06:32:07;-4.20;99.90
17726;DHT22;8983;53.156;17.960;2022-12-18T06:34:37;-4.30;99.90
17726;DHT22;8983;53.156;17.960;2022-12-18T06:37:05;-4.30;99.90
17726;DHT22;8983;53.156;17.960;2022-12-18T06:39:33;-4.40;99.90
17726;DHT22;8983;53.156;17.960;2022-12-18T06:42:01;-4.50;99.90
17726;DHT22;8983;53.156;17.960;2022-12-18T06:44:29;-4.50;99.90
17726;DHT22;8983;53.156;17.960;2022-12-18T06:46:58;-4.40;99.90
17726;DHT22;8983;53.156;17.960;2022-12-18T06:49:26;-4.50;99.90
17726;DHT22;8983;53.156;17.960;2022-12-18T06:51:56;-4.50;99.90
17726;DHT22;8983;53.156;17.960;2022-12-18T06:54:24;-4.50;99.90
17726;DHT22;8983;53.156;17.960;2022-12-18T06:56:52;-4.60;99.90
17726;DHT22;8983;53.156;17.960;2022-12-18T06:59:20;-4.60;99.90
17726;DHT22;8983;53.156;17.960;2022-12-18T07:01:48;-4.60;99.90
17726;DHT22;8983;53.156;17.960;2022-12-18T07:04:17;-4.60;99.90
17726;DHT22;8983;53.156;17.960;2022-12-18T07:06:45;-4.60;99.90
17726;DHT22;8983;53.156;17.960;2022-12-18T07:09:13;-4.60;99.90
17726;DHT22;8983;53.156;17.960;2022-12-18T07:11:41;-4.70;99.90
17726;DHT22;8983;53.156;17.960;2022-12-18T07:14:09;-4.70;99.90
17726;DHT22;8983;53.156;17.960;2022-12-18T07:16:37;-4.80;99.90
17726;DHT22;8983;53.156;17.960;2022-12-18T07:19:05;-4.70;99.90
17726;DHT22;8983;53.156;17.960;2022-12-18T07:21:34;-4.70;99.90
17726;DHT22;8983;53.156;17.960;2022-12-18T07:24:03;-4.70;99.90
17726;DHT22;8983;53.156;17.960;2022-12-18T07:26:31;-4.70;99.90
17726;DHT22;8983;53.156;17.960;2022-12-18T07:28:59;-4.70;99.90
17726;DHT22;8983;53.156;17.960;2022-12-18T07:31:27;-4.60;99.90
17726;DHT22;8983;53.156;17.960;2022-12-18T07:33:56;-4.60;99.90
17726;DHT22;8983;53.156;17.960;2022-12-18T07:36:24;-4.50;99.90
17726;DHT22;8983;53.156;17.960;2022-12-18T07:38:53;-4.50;99.90
17726;DHT22;8983;53.156;17.960;2022-12-18T07:41:22;-4.50;99.90
17726;DHT22;8983;53.156;17.960;2022-12-18T07:43:50;-4.50;99.90
17726;DHT22;8983;53.156;17.960;2022-12-18T07:46:19;-4.60;99.90
17726;DHT22;8983;53.156;17.960;2022-12-18T07:48:47;-4.60;99.90
17726;DHT22;8983;53.156;17.960;2022-12-18T07:51:17;-4.60;99.90
17726;DHT22;8983;53.156;17.960;2022-12-18T07:53:46;-4.80;99.90
17726;DHT22;8983;53.156;17.960;2022-12-18T07:56:20;-4.90;99.90
17726;DHT22;8983;53.156;17.960;2022-12-18T07:58:57;-5.10;99.90
17726;DHT22;8983;53.156;17.960;2022-12-18T08:01:26;-5.20;99.90
17726;DHT22;8983;53.156;17.960;2022-12-18T08:03:54;-5.20;99.90
17726;DHT22;8983;53.156;17.960;2022-12-18T08:06:22;-5.20;99.90
17726;DHT22;8983;53.156;17.960;2022-12-18T08:08:51;-5.10;99.90
17726;DHT22;8983;53.156;17.960;2022-12-18T08:11:22;-5.10;99.90
17726;DHT22;8983;53.156;17.960;2022-12-18T08:13:50;-5.20;99.90
17726;DHT22;8983;53.156;17.960;2022-12-18T08:16:19;-5.20;99.90
17726;DHT22;8983;53.156;17.960;2022-12-18T08:18:48;-5.10;99.90
17726;DHT22;8983;53.156;17.960;2022-12-18T08:21:18;-5.10;99.90
17726;DHT22;8983;53.156;17.960;2022-12-18T08:23:48;-5.10;99.90
17726;DHT22;8983;53.156;17.960;2022-12-18T08:26:17;-4.90;99.90
17726;DHT22;8983;53.156;17.960;2022-12-18T08:28:48;-4.80;99.90
17726;DHT22;8983;53.156;17.960;2022-12-18T08:31:17;-4.80;99.90
17726;DHT22;8983;53.156;17.960;2022-12-18T08:33:47;-4.90;99.90
17726;DHT22;8983;53.156;17.960;2022-12-18T08:36:15;-4.90;99.90
17726;DHT22;8983;53.156;17.960;2022-12-18T08:38:44;-4.80;99.90
17726;DHT22;8983;53.156;17.960;2022-12-18T08:41:14;-4.70;99.90
17726;DHT22;8983;53.156;17.960;2022-12-18T08:43:42;-4.80;99.90
17726;DHT22;8983;53.156;17.960;2022-12-18T08:46:32;-4.80;99.90
17726;DHT22;8983;53.156;17.960;2022-12-18T08:49:02;-4.80;99.90
17726;DHT22;8983;53.156;17.960;2022-12-18T08:51:30;-4.90;99.90
17726;DHT22;8983;53.156;17.960;2022-12-18T08:53:58;-5.00;99.90
17726;DHT22;8983;53.156;17.960;2022-12-18T08:56:26;-5.10;99.90
17726;DHT22;8983;53.156;17.960;2022-12-18T08:58:54;-5.00;99.90
17726;DHT22;8983;53.156;17.960;2022-12-18T09:01:23;-4.90;99.90
17726;DHT22;8983;53.156;17.960;2022-12-18T09:03:53;-5.00;99.90
17726;DHT22;8983;53.156;17.960;2022-12-18T09:06:22;-5.00;99.90
17726;DHT22;8983;53.156;17.960;2022-12-18T09:08:50;-5.00;99.90
17726;DHT22;8983;53.156;17.960;2022-12-18T09:11:20;-5.00;99.90
17726;DHT22;8983;53.156;17.960;2022-12-18T09:13:49;-5.10;99.90
17726;DHT22;8983;53.156;17.960;2022-12-18T09:16:18;-5.30;99.90
17726;DHT22;8983;53.156;17.960;2022-12-18T09:18:46;-5.50;99.90
17726;DHT22;8983;53.156;17.960;2022-12-18T09:21:17;-5.50;99.90
17726;DHT22;8983;53.156;17.960;2022-12-18T09:23:49;-5.50;99.90
17726;DHT22;8983;53.156;17.960;2022-12-18T09:26:17;-5.30;99.90
17726;DHT22;8983;53.156;17.960;2022-12-18T09:28:45;-5.30;99.90
17726;DHT22;8983;53.156;17.960;2022-12-18T09:31:17;-5.30;99.90
17726;DHT22;8983;53.156;17.960;2022-12-18T09:33:47;-5.20;99.90
17726;DHT22;8983;53.156;17.960;2022-12-18T09:36:18;-5.20;99.90
17726;DHT22;8983;53.156;17.960;2022-12-18T09:38:47;-5.10;99.90
17726;DHT22;8983;53.156;17.960;2022-12-18T09:41:35;-5.20;99.90
17726;DHT22;8983;53.156;17.960;2022-12-18T09:44:11;-5.20;99.90
17726;DHT22;8983;53.156;17.960;2022-12-18T09:46:44;-5.20;99.90
17726;DHT22;8983;53.156;17.960;2022-12-18T09:49:18;-5.20;99.90
17726;DHT22;8983;53.156;17.960;2022-12-18T09:51:52;-5.10;99.90
17726;DHT22;8983;53.156;17.960;2022-12-18T09:54:25;-5.00;99.90
17726;DHT22;8983;53.156;17.960;2022-12-18T09:56:54;-5.00;99.90
17726;DHT22;8983;53.156;17.960;2022-12-18T09:59:25;-4.90;99.90
17726;DHT22;8983;53.156;17.960;2022-12-18T10:01:54;-4.90;99.90
17726;DHT22;8983;53.156;17.960;2022-12-18T10:04:22;-4.80;99.90
17726;DHT22;8983;53.156;17.960;2022-12-18T10:06:57;-4.80;99.90
17726;DHT22;8983;53.156;17.960;2022-12-18T10:09:38;-4.80;99.90
17726;DHT22;8983;53.156;17.960;2022-12-18T10:12:13;-5.00;99.90
17726;DHT22;8983;53.156;17.960;2022-12-18T10:14:51;-5.10;99.90
17726;DHT22;8983;53.156;17.960;2022-12-18T10:17:26;-5.20;99.90
17726;DHT22;8983;53.156;17.960;2022-12-18T10:19:58;-5.10;99.90
17726;DHT22;8983;53.156;17.960;2022-12-18T10:22:48;-4.90;99.90
17726;DHT22;8983;53.156;17.960;2022-12-18T10:25:21;-4.80;99.90
17726;DHT22;8983;53.156;17.960;2022-12-18T10:27:53;-4.70;99.90
17726;DHT22;8983;53.156;17.960;2022-12-18T10:30:23;-4.80;99.90
17726;DHT22;8983;53.156;17.960;2022-12-18T10:32:52;-4.70;99.90
17726;DHT22;8983;53.156;17.960;2022-12-18T10:35:22;-4.70;99.90
17726;DHT22;8983;53.156;17.960;2022-12-18T10:38:04;-4.70;99.90
17726;DHT22;8983;53.156;17.960;2022-12-18T10:40:32;-4.60;99.90
17726;DHT22;8983;53.156;17.960;2022-12-18T10:43:16;-4.60;99.90
17726;DHT22;8983;53.156;17.960;2022-12-18T10:46:02;-4.70;99.90
17726;DHT22;8983;53.156;17.960;2022-12-18T10:48:33;-5.00;99.90
17726;DHT22;8983;53.156;17.960;2022-12-18T10:51:02;-5.10;99.90
17726;DHT22;8983;53.156;17.960;2022-12-18T10:53:42;-5.20;99.90
17726;DHT22;8983;53.156;17.960;2022-12-18T10:56:10;-5.10;99.90
17726;DHT22;8983;53.156;17.960;2022-12-18T10:58:38;-5.00;99.90
17726;DHT22;8983;53.156;17.960;2022-12-18T11:01:10;-4.90;99.90
17726;DHT22;8983;53.156;17.960;2022-12-18T11:03:40;-4.80;99.90
17726;DHT22;8983;53.156;17.960;2022-12-18T11:06:10;-4.80;99.90
17726;DHT22;8983;53.156;17.960;2022-12-18T11:08:42;-4.80;99.90
17726;DHT22;8983;53.156;17.960;2022-12-18T11:11:20;-4.70;99.90
17726;DHT22;8983;53.156;17.960;2022-12-18T11:14:01;-4.70;99.90
17726;DHT22;8983;53.156;17.960;2022-12-18T11:16:33;-4.70;99.90
17726;DHT22;8983;53.156;17.960;2022-12-18T11:19:19;-4.80;99.90
17726;DHT22;8983;53.156;17.960;2022-12-18T11:21:49;-4.90;99.90
17726;DHT22;8983;53.156;17.960;2022-12-18T11:24:23;-5.00;99.90
17726;DHT22;8983;53.156;17.960;2022-12-18T11:26:53;-5.10;99.90
17726;DHT22;8983;53.156;17.960;2022-12-18T11:29:33;-5.20;99.90
17726;DHT22;8983;53.156;17.960;2022-12-18T11:32:34;-5.10;99.90
17726;DHT22;8983;53.156;17.960;2022-12-18T11:35:11;-5.00;99.90
17726;DHT22;8983;53.156;17.960;2022-12-18T11:37:43;-5.00;99.90
17726;DHT22;8983;53.156;17.960;2022-12-18T11:40:17;-5.10;99.90
17726;DHT22;8983;53.156;17.960;2022-12-18T11:42:52;-5.00;99.90
17726;DHT22;8983;53.156;17.960;2022-12-18T11:45:27;-5.10;99.90
17726;DHT22;8983;53.156;17.960;2022-12-18T11:47:58;-5.20;99.90
17726;DHT22;8983;53.156;17.960;2022-12-18T11:50:34;-5.20;99.90
17726;DHT22;8983;53.156;17.960;2022-12-18T11:53:11;-5.00;99.90
17726;DHT22;8983;53.156;17.960;2022-12-18T11:55:47;-4.90;99.90
17726;DHT22;8983;53.156;17.960;2022-12-18T11:58:24;-4.90;99.90
17726;DHT22;8983;53.156;17.960;2022-12-18T12:01:05;-4.90;99.90
17726;DHT22;8983;53.156;17.960;2022-12-18T12:03:51;-4.80;99.90
17726;DHT22;8983;53.156;17.960;2022-12-18T12:06:28;-4.70;99.90
17726;DHT22;8983;53.156;17.960;2022-12-18T12:09:07;-4.70;99.90
17726;DHT22;8983;53.156;17.960;2022-12-18T12:11:48;-4.80;99.90
17726;DHT22;8983;53.156;17.960;2022-12-18T12:14:31;-4.80;99.90
17726;DHT22;8983;53.156;17.960;2022-12-18T12:17:08;-4.60;99.90
17726;DHT22;8983;53.156;17.960;2022-12-18T12:19:45;-4.50;99.90
17726;DHT22;8983;53.156;17.960;2022-12-18T12:22:23;-4.60;99.90
17726;DHT22;8983;53.156;17.960;2022-12-18T12:25:03;-4.80;99.90
17726;DHT22;8983;53.156;17.960;2022-12-18T12:27:43;-4.90;99.90
17726;DHT22;8983;53.156;17.960;2022-12-18T12:30:18;-5.10;99.90
17726;DHT22;8983;53.156;17.960;2022-12-18T12:33:02;-5.20;99.90
17726;DHT22;8983;53.156;17.960;2022-12-18T12:35:42;-5.20;99.90
17726;DHT22;8983;53.156;17.960;2022-12-18T12:38:14;-5.10;99.90
17726;DHT22;8983;53.156;17.960;2022-12-18T12:40:47;-5.30;99.90
17726;DHT22;8983;53.156;17.960;2022-12-18T12:43:34;-5.30;99.90
17726;DHT22;8983;53.156;17.960;2022-12-18T12:46:05;-5.30;99.90
17726;DHT22;8983;53.156;17.960;2022-12-18T12:48:41;-5.30;99.90
17726;DHT22;8983;53.156;17.960;2022-12-18T12:51:16;-5.30;99.90
17726;DHT22;8983;53.156;17.960;2022-12-18T12:53:47;-5.20;99.90
17726;DHT22;8983;53.156;17.960;2022-12-18T12:56:17;-5.20;99.90
17726;DHT22;8983;53.156;17.960;2022-12-18T12:58:54;-5.20;99.90
17726;DHT22;8983;53.156;17.960;2022-12-18T13:01:28;-5.20;99.90
17726;DHT22;8983;53.156;17.960;2022-12-18T13:04:09;-5.20;99.90
17726;DHT22;8983;53.156;17.960;2022-12-18T13:06:45;-5.10;99.90
17726;DHT22;8983;53.156;17.960;2022-12-18T13:09:16;-5.00;99.90
17726;DHT22;8983;53.156;17.960;2022-12-18T13:11:45;-4.90;99.90
17726;DHT22;8983;53.156;17.960;2022-12-18T13:14:34;-4.90;99.90
17726;DHT22;8983;53.156;17.960;2022-12-18T13:17:24;-4.90;99.90
17726;DHT22;8983;53.156;17.960;2022-12-18T13:20:10;-5.10;99.90
17726;DHT22;8983;53.156;17.960;2022-12-18T13:22:43;-5.20;99.90
17726;DHT22;8983;53.156;17.960;2022-12-18T13:25:38;-5.30;99.90
17726;DHT22;8983;53.156;17.960;2022-12-18T13:28:09;-5.50;99.90
17726;DHT22;8983;53.156;17.960;2022-12-18T13:30:53;-5.60;99.90
17726;DHT22;8983;53.156;17.960;2022-12-18T13:33:47;-5.70;99.90
17726;DHT22;8983;53.156;17.960;2022-12-18T13:36:35;-5.70;99.90
17726;DHT22;8983;53.156;17.960;2022-12-18T13:39:33;-5.70;99.90
17726;DHT22;8983;53.156;17.960;2022-12-18T13:42:39;-5.50;99.90
17726;DHT22;8983;53.156;17.960;2022-12-18T13:45:47;-5.50;99.90
17726;DHT22;8983;53.156;17.960;2022-12-18T13:48:22;-5.50;99.90
17726;DHT22;8983;53.156;17.960;2022-12-18T13:50:58;-5.50;99.90
17726;DHT22;8983;53.156;17.960;2022-12-18T13:53:29;-5.50;99.90
17726;DHT22;8983;53.156;17.960;2022-12-18T13:55:58;-5.40;99.90
17726;DHT22;8983;53.156;17.960;2022-12-18T13:58:26;-5.50;99.90
17726;DHT22;8983;53.156;17.960;2022-12-18T14:00:54;-5.50;99.90
17726;DHT22;8983;53.156;17.960;2022-12-18T14:03:26;-5.40;99.90
17726;DHT22;8983;53.156;17.960;2022-12-18T14:06:00;-5.30;99.90
17726;DHT22;8983;53.156;17.960;2022-12-18T14:08:34;-5.30;99.90
17726;DHT22;8983;53.156;17.960;2022-12-18T14:11:04;-5.40;99.90
17726;DHT22;8983;53.156;17.960;2022-12-18T14:13:37;-5.50;99.90
17726;DHT22;8983;53.156;17.960;2022-12-18T14:16:06;-5.50;99.90
17726;DHT22;8983;53.156;17.960;2022-12-18T14:18:43;-5.40;99.90
17726;DHT22;8983;53.156;17.960;2022-12-18T14:21:22;-5.50;99.90
17726;DHT22;8983;53.156;17.960;2022-12-18T14:24:04;-5.50;99.90
17726;DHT22;8983;53.156;17.960;2022-12-18T14:26:33;-5.40;99.90
17726;DHT22;8983;53.156;17.960;2022-12-18T14:29:18;-5.50;99.90
17726;DHT22;8983;53.156;17.960;2022-12-18T14:32:04;-5.50;99.90
17726;DHT22;8983;53.156;17.960;2022-12-18T14:34:38;-5.40;99.90
17726;DHT22;8983;53.156;17.960;2022-12-18T14:37:09;-5.50;99.90
17726;DHT22;8983;53.156;17.960;2022-12-18T14:39:37;-5.60;99.90
17726;DHT22;8983;53.156;17.960;2022-12-18T14:42:05;-5.60;99.90
17726;DHT22;8983;53.156;17.960;2022-12-18T14:44:37;-5.70;99.90
17726;DHT22;8983;53.156;17.960;2022-12-18T14:47:25;-5.70;99.90
17726;DHT22;8983;53.156;17.960;2022-12-18T14:49:54;-5.70;99.90
17726;DHT22;8983;53.156;17.960;2022-12-18T14:52:25;-5.70;99.90
17726;DHT22;8983;53.156;17.960;2022-12-18T14:54:55;-5.70;99.90
17726;DHT22;8983;53.156;17.960;2022-12-18T14:57:24;-5.70;99.90
17726;DHT22;8983;53.156;17.960;2022-12-18T14:59:53;-5.70;99.90
17726;DHT22;8983;53.156;17.960;2022-12-18T15:02:23;-5.70;99.90
17726;DHT22;8983;53.156;17.960;2022-12-18T15:05:02;-5.80;99.90
17726;DHT22;8983;53.156;17.960;2022-12-18T15:07:42;-5.80;99.90
17726;DHT22;8983;53.156;17.960;2022-12-18T15:10:14;-5.80;99.90
17726;DHT22;8983;53.156;17.960;2022-12-18T15:12:43;-5.90;99.90
17726;DHT22;8983;53.156;17.960;2022-12-18T15:15:46;-5.90;99.90
17726;DHT22;8983;53.156;17.960;2022-12-18T15:18:16;-5.80;99.90
17726;DHT22;8983;53.156;17.960;2022-12-18T15:20:49;-5.80;99.90
17726;DHT22;8983;53.156;17.960;2022-12-18T15:23:20;-5.80;99.90
17726;DHT22;8983;53.156;17.960;2022-12-18T15:25:58;-5.80;99.90
17726;DHT22;8983;53.156;17.960;2022-12-18T15:28:29;-5.80;99.90
17726;DHT22;8983;53.156;17.960;2022-12-18T15:31:04;-5.80;99.90
17726;DHT22;8983;53.156;17.960;2022-12-18T15:33:35;-5.80;99.90
17726;DHT22;8983;53.156;17.960;2022-12-18T15:36:09;-5.80;99.90
17726;DHT22;8983;53.156;17.960;2022-12-18T15:38:37;-5.80;99.90
17726;DHT22;8983;53.156;17.960;2022-12-18T15:41:11;-5.80;99.90
17726;DHT22;8983;53.156;17.960;2022-12-18T15:43:48;-5.80;99.90
17726;DHT22;8983;53.156;17.960;2022-12-18T15:46:17;-5.70;99.90
17726;DHT22;8983;53.156;17.960;2022-12-18T15:48:46;-5.70;99.90
17726;DHT22;8983;53.156;17.960;2022-12-18T15:51:18;-5.70;99.90
17726;DHT22;8983;53.156;17.960;2022-12-18T15:53:47;-5.70;99.90
17726;DHT22;8983;53.156;17.960;2022-12-18T15:56:16;-5.70;99.90
17726;DHT22;8983;53.156;17.960;2022-12-18T15:59:04;-5.70;99.90
17726;DHT22;8983;53.156;17.960;2022-12-18T16:01:32;-5.70;99.90
17726;DHT22;8983;53.156;17.960;2022-12-18T16:04:09;-5.70;99.90